Rincon, PR (00677)

10:56 AM AST on October 30, 2014 (GMT -0400)
wp3yw Piedras Blancas | Change Station
CLOSE
Current Station
Personal Weather Station
Location: Aguada,
Elevation: 144 ft
Nearby Weather Stations

Elev 144 ft 18.36 °N, 67.20 °W | Updated 14 minutes ago

Partly Cloudy
Partly Cloudy
84.2 °F
Feels Like 95 °F
N
3.2
Wind Variable Wind from NNW

Today
High -- | Low -- °F
--% Chance of Precip.
Yesterday
High -- | Low -- °F
Precip. -- in
6:27 AM 5:57 PM
Waxing Crescent, 44% visible
Pressure 29.87 in
Visibility 10.0 miles
Clouds Few 3000 ft
Heat Index 95 °F
Dew Point 78 °F
Humidity 82%
Rainfall 0.00 in
Snow Depth Not available.
UV 3 out of 12
Pollen Not available.
Air Quality Not available.
Flu Activity Not available.
METAR TJMZ 301250Z 10005KT 10SM FEW030 27/22 A2987

More Conditions Fewer Conditions

Pressure 29.87 in
Visibility 10.0 miles
Clouds Few 3000 ft
Heat Index 95 °F
Dew Point 78 °F
Humidity 82%
Rainfall 0.00 in
Snow Depth Not available.
UV 3 out of 12
Pollen Not available.
Air Quality Not available.
Flu Activity Not available.
METAR TJMZ 301250Z 10005KT 10SM FEW030 27/22 A2987

More Conditions Fewer Conditions

10-Day Weather Forecast

Almanac

Astronomy

Oct. 30, 2014 Rise Set
Actual Time
Civil Twilight
Nautical Twilight
Astronomical Twilight
Moon
Length of Visible Light
Length of Day
Tomorrow will be .
, % of the Moon is Illuminated

Today's Extremes

State Highs State Lows

Community

WunderPhotos

Upload Photos

1,766,379 photos uploaded!

WunderBlogs® & News

Nearby

Air Quality

  Air Quality AQ Index Pollutant
Not available.

Snow Depth

Station Depth Elevation

Earthquake Activity

City Distance Mag. Time & Date
Minimum magnitude displayed is 2.5.

Coastal Water Temperatures

Place Temperature

Nearby Weather Stations